Аэропорт: Ханты-Мансийск. Ханты-Мансийск

ICAO: USHH

METAR:
2018/11/21 18:30
USHH 211830Z 21003MPS 4000 -SHSN BKN024CB M05/M06 Q0990 R24/491034 TEMPO 1000 SHSN BKN005CB RMK QFE739
METAR:
2018/11/21 18:00
TAF USHH 211659Z 2118/2218 23005G12MPS 3100 -SHSN BKN011CB 
      TEMPO 2118/2209 1000 SHSN BLSN BKN004 OVC011CB 
      BECMG 2120/2122 02003G09MPS 
      TEMPO 2209/2215 3100 -SHSN BLSN SCT004 BKN011CB